Time;durP1;ratioP1;P1;durP2;ratioP2;P2;SDS_P1;SDS_P2;PMS_P1;PMS_P2;Temp;Humidity;BMP_temperature;BMP_pressure;BME280_temperature;BME280_humidity;BME280_pressure;Samples;Min_cycle;Max_cycle;Signal;HPM_P1;HPM_P2
2022/08/28 00:00:14;;;;;;;24.83;4.27;;;14.90;99.90;;;;;;4897417;29;20451;-45
2022/08/28 00:02:40;;;;;;;19.07;4.70;;;14.90;99.90;;;;;;4898310;29;20566;-45
2022/08/28 00:05:08;;;;;;;13.67;4.23;;;14.90;1.00;;;;;;4897385;29;20455;-45
2022/08/28 00:07:34;;;;;;;15.83;3.83;;;15.00;1.00;;;;;;4897213;29;20482;-45
2022/08/28 00:10:00;;;;;;;11.50;4.23;;;14.90;1.00;;;;;;4896812;29;20471;-45
2022/08/28 00:12:26;;;;;;;15.00;4.07;;;14.90;78.90;;;;;;4896328;29;20475;-45
2022/08/28 00:14:51;;;;;;;12.37;4.87;;;14.90;99.90;;;;;;4897200;29;20287;-45
2022/08/28 00:17:17;;;;;;;11.37;3.90;;;14.90;37.00;;;;;;4895789;29;20452;-45
2022/08/28 00:19:43;;;;;;;16.03;4.53;;;14.90;93.60;;;;;;4898183;29;20706;-45
2022/08/28 00:22:09;;;;;;;21.40;4.97;;;14.90;99.90;;;;;;4897829;29;20332;-45
2022/08/28 00:24:35;;;;;;;13.97;4.80;;;14.80;1.00;;;;;;4897839;29;20278;-45
2022/08/28 00:29:45;;;;;;;15.30;4.90;;;14.70;1.00;;;;;;4897625;29;20837;-45
2022/08/28 00:32:12;;;;;;;24.07;4.50;;;14.70;99.90;;;;;;4896012;29;20483;-45
2022/08/28 00:34:38;;;;;;;20.27;5.10;;;14.70;99.90;;;;;;4897705;29;20203;-45
2022/08/28 00:37:04;;;;;;;16.90;5.40;;;14.80;1.00;;;;;;4897375;29;20495;-49
2022/08/28 00:39:31;;;;;;;19.20;4.47;;;14.80;99.90;;;;;;4896881;29;20503;-45
2022/08/28 00:41:56;;;;;;;16.33;4.97;;;14.70;6.80;;;;;;4896721;29;20452;-45
2022/08/28 00:44:25;;;;;;;20.73;4.20;;;14.70;99.90;;;;;;4891291;29;20507;-45
2022/08/28 00:46:53;;;;;;;10.30;4.20;;;14.70;99.90;;;;;;4898017;29;20246;-45
2022/08/28 00:49:24;;;;;;;15.50;4.47;;;14.70;40.60;;;;;;4896822;29;20455;-45
2022/08/28 00:52:06;;;;;;;14.70;5.07;;;14.70;99.90;;;;;;4896408;29;20478;-45
2022/08/28 00:54:45;;;;;;;13.50;5.00;;;14.70;99.90;;;;;;4898052;29;20534;-45
2022/08/28 00:57:33;;;;;;;15.50;4.60;;;14.60;99.90;;;;;;4882952;29;20510;-45
2022/08/28 01:00:00;;;;;;;17.53;5.10;;;14.60;99.90;;;;;;4896069;29;20448;-45
2022/08/28 01:02:26;;;;;;;13.30;4.40;;;14.70;99.90;;;;;;4894419;29;20535;-45
2022/08/28 01:04:53;;;;;;;12.50;3.90;;;14.70;99.90;;;;;;4896697;29;20448;-45
2022/08/28 01:07:22;;;;;;;12.13;4.00;;;14.70;99.90;;;;;;4897229;29;20467;-46
2022/08/28 01:09:51;;;;;;;18.03;4.27;;;14.70;1.00;;;;;;4896580;29;20491;-45
2022/08/28 01:12:23;;;;;;;12.00;4.17;;;14.70;1.00;;;;;;4895002;29;20531;-46
2022/08/28 01:14:51;;;;;;;16.87;4.70;;;14.70;1.00;;;;;;4895080;29;20460;-46
2022/08/28 01:17:18;;;;;;;12.50;4.70;;;14.70;99.90;;;;;;4897583;29;20427;-45
2022/08/28 01:19:55;;;;;;;14.07;4.80;;;14.80;1.00;;;;;;4897191;29;20471;-45
2022/08/28 01:22:37;;;;;;;17.70;4.43;;;14.90;99.90;;;;;;4897332;29;20440;-45
2022/08/28 01:25:06;;;;;;;23.80;4.90;;;14.80;99.90;;;;;;4896077;29;21017;-45
2022/08/28 01:27:32;;;;;;;15.47;4.47;;;14.80;99.90;;;;;;4897282;29;20427;-45
2022/08/28 01:29:58;;;;;;;15.83;5.07;;;14.80;1.00;;;;;;4894152;29;20541;-45
2022/08/28 01:32:36;;;;;;;11.40;4.40;;;14.80;1.00;;;;;;4895440;29;20224;-45
2022/08/28 01:35:05;;;;;;;14.80;5.10;;;14.70;1.00;;;;;;4897327;29;20199;-46
2022/08/28 01:37:31;;;;;;;18.33;4.27;;;14.80;1.00;;;;;;4895724;29;20467;-45
2022/08/28 01:40:00;;;;;;;20.93;4.07;;;14.80;99.90;;;;;;4896752;29;20475;-45
2022/08/28 01:42:25;;;;;;;16.70;4.40;;;14.80;1.00;;;;;;4895579;29;20455;-45
2022/08/28 01:44:52;;;;;;;20.90;4.07;;;14.70;99.90;;;;;;4892555;29;20927;-45
2022/08/28 01:47:19;;;;;;;17.87;4.40;;;14.70;99.90;;;;;;4893435;29;20203;-45
2022/08/28 01:49:45;;;;;;;15.17;4.30;;;14.70;99.90;;;;;;4896642;29;20523;-45
2022/08/28 01:52:10;;;;;;;14.50;4.40;;;14.70;1.00;;;;;;4896093;29;21474;-45
2022/08/28 01:54:36;;;;;;;13.30;4.10;;;14.80;99.90;;;;;;4894864;29;20234;-45
2022/08/28 01:57:02;;;;;;;9.57;4.23;;;14.80;99.90;;;;;;4896913;29;20223;-45
2022/08/28 01:59:28;;;;;;;13.73;4.63;;;14.80;1.00;;;;;;4895632;29;20195;-45
2022/08/28 02:01:54;;;;;;;11.37;4.30;;;14.80;1.00;;;;;;4895480;29;21002;-45
2022/08/28 02:04:20;;;;;;;14.50;4.20;;;14.80;99.90;;;;;;4896415;29;20561;-45
2022/08/28 02:06:45;;;;;;;12.23;4.57;;;14.90;99.90;;;;;;4895143;29;20200;-45
2022/08/28 02:09:11;;;;;;;15.43;4.50;;;14.90;99.90;;;;;;4895595;29;20522;-45
2022/08/28 02:11:40;;;;;;;19.63;4.73;;;15.00;1.00;;;;;;4895564;29;20200;-45
2022/08/28 02:14:05;;;;;;;11.83;4.33;;;15.00;1.00;;;;;;4895528;29;20272;-45
2022/08/28 02:16:31;;;;;;;12.37;4.67;;;15.00;60.50;;;;;;4895091;29;20456;-45
2022/08/28 02:18:57;;;;;;;15.13;4.60;;;14.90;99.90;;;;;;4894587;29;20251;-45
2022/08/28 02:21:24;;;;;;;18.80;4.80;;;14.80;1.00;;;;;;4897361;29;20667;-45
2022/08/28 02:23:49;;;;;;;13.80;4.20;;;14.80;99.90;;;;;;4895731;29;20503;-45
2022/08/28 02:26:15;;;;;;;17.57;4.40;;;14.80;1.00;;;;;;4895977;29;21218;-45
2022/08/28 02:28:42;;;;;;;16.90;4.50;;;14.70;99.90;;;;;;4893113;29;20222;-45
2022/08/28 02:31:08;;;;;;;16.50;4.00;;;14.90;99.90;;;;;;4896080;29;20448;-45
2022/08/28 02:33:43;;;;;;;13.43;4.13;;;15.00;99.90;;;;;;4895497;29;20818;-45
2022/08/28 02:36:10;;;;;;;12.03;3.63;;;14.90;99.90;;;;;;4895531;29;20518;-45
2022/08/28 02:38:37;;;;;;;14.63;4.37;;;14.90;1.00;;;;;;4887332;29;20476;-45
2022/08/28 02:41:04;;;;;;;10.87;3.97;;;14.80;99.90;;;;;;4893918;29;20456;-45
2022/08/28 02:43:30;;;;;;;13.80;4.60;;;14.70;99.90;;;;;;4894508;29;20451;-45
2022/08/28 02:45:56;;;;;;;16.30;4.53;;;14.60;1.00;;;;;;4887297;29;20507;-45
2022/08/28 02:48:22;;;;;;;17.13;4.03;;;14.60;1.00;;;;;;4886472;29;20949;-45
2022/08/28 02:50:48;;;;;;;16.03;4.13;;;14.60;1.00;;;;;;4908408;29;20974;-45
2022/08/28 02:53:14;;;;;;;16.43;4.80;;;14.60;99.90;;;;;;4895009;29;20475;-45
2022/08/28 02:55:39;;;;;;;16.77;5.00;;;14.50;1.00;;;;;;4895412;29;20295;-45
2022/08/28 02:58:08;;;;;;;16.00;4.90;;;14.50;99.90;;;;;;4894788;29;20215;-45
2022/08/28 03:00:33;;;;;;;18.37;4.67;;;14.50;1.00;;;;;;4895047;29;20188;-45
2022/08/28 03:02:59;;;;;;;15.27;4.47;;;14.60;99.90;;;;;;4894569;29;20447;-45
2022/08/28 03:05:25;;;;;;;17.03;4.23;;;14.60;99.90;;;;;;4895143;29;20214;-45
2022/08/28 03:07:52;;;;;;;15.03;4.20;;;14.50;35.10;;;;;;4895293;29;20272;-45
2022/08/28 03:10:19;;;;;;;17.33;5.00;;;14.40;1.00;;;;;;4892673;29;20447;-45
2022/08/28 03:12:45;;;;;;;11.00;4.20;;;14.50;99.90;;;;;;4895864;29;20877;-45
2022/08/28 03:15:11;;;;;;;15.20;4.60;;;14.30;1.00;;;;;;4895009;29;20447;-45
2022/08/28 03:17:37;;;;;;;15.60;3.90;;;14.20;1.00;;;;;;4894232;29;20511;-45
2022/08/28 03:20:06;;;;;;;16.63;4.20;;;14.10;99.90;;;;;;4894449;29;20435;-45
2022/08/28 03:25:16;;;;;;;19.93;4.20;;;14.10;1.00;;;;;;4892267;29;20439;-45
2022/08/28 03:27:42;;;;;;;18.30;4.20;;;14.30;1.00;;;;;;4892053;29;20455;-45
2022/08/28 03:30:08;;;;;;;12.47;3.60;;;14.30;99.90;;;;;;4894311;29;20202;-46
2022/08/28 03:32:34;;;;;;;18.40;5.07;;;14.40;92.60;;;;;;4891945;29;20561;-45
2022/08/28 03:35:00;;;;;;;10.67;3.70;;;14.40;1.00;;;;;;4896125;29;20443;-45
2022/08/28 03:37:26;;;;;;;16.77;4.60;;;14.50;93.60;;;;;;4898997;29;21029;-45
2022/08/28 03:39:51;;;;;;;19.47;4.10;;;14.40;1.00;;;;;;4898964;29;20271;-45
2022/08/28 03:42:17;;;;;;;18.13;3.90;;;14.50;99.90;;;;;;4897467;29;20539;-47
2022/08/28 03:44:43;;;;;;;9.33;4.13;;;14.40;99.90;;;;;;4897647;29;20560;-45
2022/08/28 03:47:08;;;;;;;15.03;4.70;;;14.60;99.90;;;;;;4898998;29;20654;-45
2022/08/28 03:49:34;;;;;;;13.37;4.13;;;14.70;1.00;;;;;;4899022;29;20199;-45
2022/08/28 03:52:00;;;;;;;10.30;3.60;;;14.60;1.00;;;;;;4897341;29;20215;-45
2022/08/28 03:54:25;;;;;;;8.47;3.47;;;14.80;1.00;;;;;;4888470;29;20187;-45
2022/08/28 03:56:51;;;;;;;8.97;3.70;;;14.90;1.00;;;;;;4884585;29;20313;-45
2022/08/28 03:59:19;;;;;;;13.53;4.57;;;14.90;99.90;;;;;;4898900;29;20631;-45
2022/08/28 04:01:44;;;;;;;12.13;3.97;;;14.80;99.90;;;;;;4897113;29;20203;-45
2022/08/28 04:04:10;;;;;;;14.57;4.30;;;14.80;1.00;;;;;;4897737;29;20455;-45
2022/08/28 04:06:36;;;;;;;9.93;4.20;;;14.90;1.00;;;;;;4897505;29;20192;-45
2022/08/28 04:09:01;;;;;;;18.57;4.27;;;14.80;99.90;;;;;;4897321;29;20554;-45
2022/08/28 04:11:27;;;;;;;15.50;4.60;;;14.80;99.90;;;;;;4896171;29;20203;-45
2022/08/28 04:13:53;;;;;;;22.80;5.10;;;14.60;99.90;;;;;;4906713;29;20656;-45
2022/08/28 04:16:19;;;;;;;14.10;4.13;;;14.60;1.00;;;;;;4898079;29;20650;-46
2022/08/28 04:18:47;;;;;;;10.37;3.97;;;14.70;1.00;;;;;;4897697;29;20186;-45
2022/08/28 04:21:19;;;;;;;17.27;4.30;;;14.60;1.00;;;;;;4897241;29;20625;-45
2022/08/28 04:23:46;;;;;;;16.57;4.50;;;14.70;99.90;;;;;;4896890;29;20437;-45
2022/08/28 04:26:14;;;;;;;13.40;3.80;;;14.70;1.00;;;;;;4897011;29;20447;-45
2022/08/28 04:28:40;;;;;;;15.40;4.00;;;14.80;99.90;;;;;;4897402;29;20535;-45
2022/08/28 04:31:07;;;;;;;11.73;3.70;;;14.90;1.00;;;;;;4896374;29;20491;-45
2022/08/28 04:33:33;;;;;;;9.70;3.20;;;15.00;1.00;;;;;;4895929;29;20483;-45
2022/08/28 04:36:10;;;;;;;8.90;3.67;;;15.30;99.90;;;;;;4897986;29;20861;-46
2022/08/28 04:38:37;;;;;;;13.83;4.20;;;15.40;47.50;;;;;;4896627;29;20452;-45
2022/08/28 04:41:05;;;;;;;17.57;4.40;;;15.40;1.00;;;;;;4897295;29;20450;-46
2022/08/28 04:43:31;;;;;;;8.53;3.63;;;15.40;1.00;;;;;;4896799;29;20456;-45
2022/08/28 04:45:57;;;;;;;10.63;3.23;;;15.50;1.00;;;;;;4896896;29;20463;-45
2022/08/28 04:48:23;;;;;;;11.47;3.70;;;15.50;1.00;;;;;;4895832;29;20460;-45
2022/08/28 04:50:49;;;;;;;9.30;3.83;;;15.60;1.00;;;;;;4901801;29;20427;-45
2022/08/28 04:53:17;;;;;;;9.50;3.80;;;15.70;1.00;;;;;;4897507;29;21037;-46
2022/08/28 04:55:49;;;;;;;12.43;3.50;;;15.80;1.00;;;;;;4898480;29;20224;-45
2022/08/28 04:58:16;;;;;;;11.40;3.73;;;15.90;1.00;;;;;;4898490;29;20960;-45
2022/08/28 05:00:44;;;;;;;13.13;3.73;;;15.90;1.00;;;;;;4897326;29;20427;-45
2022/08/28 05:03:10;;;;;;;14.40;4.00;;;15.90;1.00;;;;;;4897448;29;20446;-45
2022/08/28 05:05:43;;;;;;;10.57;2.87;;;15.80;1.00;;;;;;4897615;29;20507;-45
2022/08/28 05:08:09;;;;;;;13.77;3.40;;;15.70;1.00;;;;;;4880499;29;20410;-45
2022/08/28 05:10:35;;;;;;;12.70;4.03;;;15.70;1.00;;;;;;4896891;29;20472;-45
2022/08/28 05:13:01;;;;;;;17.30;3.80;;;15.60;1.00;;;;;;4896692;29;20562;-45
2022/08/28 05:15:27;;;;;;;11.43;3.87;;;15.50;1.00;;;;;;4896917;29;20191;-45
2022/08/28 05:17:52;;;;;;;11.00;3.93;;;15.30;1.00;;;;;;4897824;29;20171;-45
2022/08/28 05:20:18;;;;;;;9.73;4.07;;;15.20;1.00;;;;;;4889538;29;20192;-45
2022/08/28 05:22:44;;;;;;;15.07;5.20;;;15.00;1.00;;;;;;4885011;29;20275;-45
2022/08/28 05:25:10;;;;;;;11.27;3.90;;;14.90;1.00;;;;;;4894942;29;20251;-46
2022/08/28 05:27:37;;;;;;;10.17;3.50;;;14.90;1.00;;;;;;4896756;29;20741;-45
2022/08/28 05:30:04;;;;;;;13.70;4.00;;;14.80;35.80;;;;;;4896994;29;20466;-45
2022/08/28 05:32:29;;;;;;;11.00;3.60;;;14.90;10.90;;;;;;4896289;29;20479;-45
2022/08/28 05:34:55;;;;;;;13.63;4.40;;;15.00;77.60;;;;;;4894770;29;20479;-45
2022/08/28 05:37:21;;;;;;;7.93;3.40;;;15.00;99.90;;;;;;4893975;29;20238;-45
2022/08/28 05:39:47;;;;;;;13.83;4.27;;;15.10;35.90;;;;;;4895623;29;20184;-46
2022/08/28 05:42:13;;;;;;;10.87;3.50;;;15.20;1.00;;;;;;4895386;29;20458;-45
2022/08/28 05:44:39;;;;;;;13.73;3.77;;;15.20;1.00;;;;;;4894779;29;20511;-45
2022/08/28 05:47:04;;;;;;;14.63;3.83;;;15.20;1.00;;;;;;4896787;29;20650;-45
2022/08/28 05:49:30;;;;;;;12.37;4.47;;;15.20;1.00;;;;;;4896706;29;20195;-45
2022/08/28 05:51:56;;;;;;;14.60;3.50;;;15.20;1.00;;;;;;4896765;29;20286;-45
2022/08/28 05:54:21;;;;;;;10.40;4.00;;;15.30;1.00;;;;;;4895677;29;20196;-45
2022/08/28 05:56:47;;;;;;;14.33;3.60;;;15.30;1.00;;;;;;4894420;29;20228;-45
2022/08/28 05:59:14;;;;;;;7.70;3.00;;;15.40;1.00;;;;;;4894494;29;20188;-46
2022/08/28 06:01:46;;;;;;;21.77;3.97;;;15.50;1.00;;;;;;4895775;29;20792;-45
2022/08/28 06:04:16;;;;;;;11.77;3.30;;;15.60;1.00;;;;;;4895355;29;20527;-45
2022/08/28 06:06:42;;;;;;;14.70;3.50;;;15.80;1.00;;;;;;4895597;29;20443;-48
2022/08/28 06:09:14;;;;;;;18.10;4.10;;;16.00;1.00;;;;;;4895039;29;20841;-46
2022/08/28 06:11:41;;;;;;;13.60;3.70;;;16.20;1.00;;;;;;4896094;29;20447;-46
2022/08/28 06:14:09;;;;;;;12.57;3.10;;;16.30;1.00;;;;;;4894724;29;20467;-45
2022/08/28 06:16:37;;;;;;;7.40;2.70;;;16.50;1.00;;;;;;4894047;29;20543;-46
2022/08/28 06:19:03;;;;;;;12.97;3.40;;;16.60;1.00;;;;;;4895907;29;20502;-46
2022/08/28 06:21:29;;;;;;;7.03;2.83;;;16.70;1.00;;;;;;4893702;29;20542;-46
2022/08/28 06:23:55;;;;;;;12.50;3.63;;;16.90;1.00;;;;;;4894880;29;20587;-46
2022/08/28 06:26:21;;;;;;;16.70;3.50;;;16.90;1.00;;;;;;4893309;29;20184;-46
2022/08/28 06:28:47;;;;;;;13.07;3.20;;;16.90;1.00;;;;;;4895980;29;20444;-46
2022/08/28 06:31:13;;;;;;;11.60;3.57;;;17.10;1.00;;;;;;4896058;29;20454;-46
2022/08/28 06:33:39;;;;;;;12.90;3.47;;;17.30;1.00;;;;;;4894339;29;20697;-46
2022/08/28 06:36:06;;;;;;;8.13;3.07;;;17.40;1.00;;;;;;4894866;29;20550;-46
2022/08/28 06:38:32;;;;;;;17.90;3.10;;;17.60;1.00;;;;;;4895098;29;20210;-46
2022/08/28 06:40:58;;;;;;;13.87;3.10;;;17.70;1.00;;;;;;4896363;29;20828;-46
2022/08/28 06:43:26;;;;;;;12.03;3.40;;;17.80;1.00;;;;;;4893757;29;20638;-47
2022/08/28 06:45:54;;;;;;;8.10;2.80;;;18.00;99.90;;;;;;4909359;29;20455;-46
2022/08/28 06:48:23;;;;;;;12.77;3.20;;;18.20;99.90;;;;;;4891976;29;20448;-47
2022/08/28 06:50:51;;;;;;;14.07;2.83;;;18.30;99.90;;;;;;4894278;29;20878;-46
2022/08/28 06:53:18;;;;;;;12.03;2.70;;;18.50;99.90;;;;;;4892746;29;20482;-46
2022/08/28 06:55:44;;;;;;;9.27;3.50;;;18.60;99.90;;;;;;4893690;29;20448;-46
2022/08/28 06:58:11;;;;;;;11.10;3.10;;;18.70;99.90;;;;;;4894306;29;20447;-46
2022/08/28 07:00:37;;;;;;;13.00;2.73;;;18.70;99.90;;;;;;4895183;29;20507;-46
2022/08/28 07:03:04;;;;;;;13.17;2.87;;;18.80;99.90;;;;;;4893666;29;20527;-46
2022/08/28 07:05:31;;;;;;;8.20;2.80;;;19.00;99.90;;;;;;4892899;29;20452;-46
2022/08/28 07:07:57;;;;;;;21.30;3.43;;;19.30;99.90;;;;;;4892544;29;20471;-47
2022/08/28 07:10:23;;;;;;;14.10;3.27;;;19.40;99.90;;;;;;4893441;29;20448;-47
2022/08/28 07:12:49;;;;;;;9.83;3.10;;;19.60;99.90;;;;;;4895060;29;20600;-46
2022/08/28 07:15:16;;;;;;;8.80;2.90;;;19.70;99.90;;;;;;4894429;29;20192;-47
2022/08/28 07:17:42;;;;;;;9.37;3.23;;;19.70;99.90;;;;;;4894851;29;20443;-46
2022/08/28 07:20:10;;;;;;;9.73;2.90;;;19.90;99.90;;;;;;4893962;29;20515;-47
2022/08/28 07:22:36;;;;;;;13.03;3.97;;;20.30;99.90;;;;;;4895266;29;20247;-46
2022/08/28 07:25:03;;;;;;;13.37;2.90;;;20.50;99.90;;;;;;4893181;29;20934;-47
2022/08/28 07:27:30;;;;;;;8.43;2.70;;;20.30;99.90;;;;;;4908361;29;20494;-47
2022/08/28 07:29:57;;;;;;;9.80;3.00;;;20.40;99.90;;;;;;4893704;29;20949;-47
2022/08/28 07:32:23;;;;;;;17.70;3.40;;;20.60;99.90;;;;;;4894174;29;20468;-47
2022/08/28 07:34:49;;;;;;;9.13;2.67;;;20.80;99.90;;;;;;4894021;29;20539;-46
2022/08/28 07:37:15;;;;;;;9.50;3.07;;;21.00;99.90;;;;;;4895258;29;20866;-46
2022/08/28 07:39:41;;;;;;;4.97;2.47;;;21.30;99.90;;;;;;4893628;29;20840;-47
2022/08/28 07:42:07;;;;;;;11.73;2.80;;;21.50;99.90;;;;;;4886274;29;20432;-47
2022/08/28 07:44:48;;;;;;;12.20;2.93;;;21.10;99.90;;;;;;4893092;29;20187;-46
2022/08/28 07:47:14;;;;;;;12.07;3.43;;;21.00;99.90;;;;;;4893461;29;20462;-46
2022/08/28 07:49:40;;;;;;;6.63;3.10;;;20.70;99.90;;;;;;4892695;29;20618;-47
2022/08/28 07:52:07;;;;;;;12.70;2.97;;;20.70;99.90;;;;;;4906977;29;20567;-47
2022/08/28 07:54:34;;;;;;;18.10;3.37;;;20.70;99.90;;;;;;4893770;29;20216;-47
2022/08/28 07:57:01;;;;;;;11.73;3.47;;;21.10;99.90;;;;;;4893642;29;20444;-47
2022/08/28 07:59:28;;;;;;;9.33;3.30;;;21.40;99.90;;;;;;4893955;29;20440;-47
2022/08/28 08:01:54;;;;;;;10.20;2.97;;;21.10;99.90;;;;;;4893992;29;21022;-47
2022/08/28 08:04:21;;;;;;;10.00;2.87;;;20.80;99.90;;;;;;4893371;29;20591;-46
2022/08/28 08:06:47;;;;;;;13.00;2.90;;;20.50;99.90;;;;;;4881807;29;20247;-46
2022/08/28 08:09:16;;;;;;;6.67;2.53;;;20.20;99.90;;;;;;4890195;29;20444;-46
2022/08/28 08:11:43;;;;;;;10.20;3.30;;;20.00;99.90;;;;;;4886454;29;20198;-47
2022/08/28 08:14:09;;;;;;;9.77;2.67;;;19.70;99.90;;;;;;4893833;29;20448;-47
2022/08/28 08:16:38;;;;;;;7.47;2.90;;;19.80;99.90;;;;;;4893455;29;20459;-47
2022/08/28 08:19:05;;;;;;;7.03;2.87;;;20.40;99.90;;;;;;4895379;29;20455;-47
2022/08/28 08:21:31;;;;;;;13.50;3.13;;;21.00;99.90;;;;;;4897038;29;20439;-47
2022/08/28 08:23:57;;;;;;;13.43;3.30;;;21.70;99.90;;;;;;4897623;29;20957;-47
2022/08/28 08:26:24;;;;;;;8.00;2.87;;;22.50;99.90;;;;;;4897455;29;20530;-47
2022/08/28 08:28:51;;;;;;;5.50;3.20;;;23.00;99.90;;;;;;4897243;29;20479;-47
2022/08/28 08:31:18;;;;;;;10.50;3.27;;;23.40;99.90;;;;;;4896608;29;20779;-47
2022/08/28 08:33:51;;;;;;;8.53;3.10;;;23.10;99.90;;;;;;4888029;29;20482;-48
2022/08/28 08:36:20;;;;;;;8.20;3.07;;;23.30;99.90;;;;;;4897575;29;21060;-47
2022/08/28 08:38:46;;;;;;;8.20;2.80;;;23.50;99.90;;;;;;4896967;29;20448;-51
2022/08/28 08:41:33;;;;;;;10.90;3.53;;;23.00;99.90;;;;;;4894084;29;20930;-48
2022/08/28 08:44:06;;;;;;;10.63;3.20;;;22.80;99.90;;;;;;4885115;29;20918;-48
2022/08/28 08:46:54;;;;;;;12.37;4.07;;;22.90;99.90;;;;;;4884710;29;20416;-48
2022/08/28 08:49:24;;;;;;;10.70;3.60;;;22.90;99.90;;;;;;4898232;29;20761;-47
2022/08/28 08:52:24;;;;;;;9.73;3.00;;;22.80;99.90;;;;;;4884375;29;21920;-48
2022/08/28 08:55:22;;;;;;;10.37;2.83;;;23.20;99.90;;;;;;4897901;29;20440;-47
2022/08/28 08:58:11;;;;;;;7.80;2.87;;;23.40;99.90;;;;;;4898121;29;20408;-47
2022/08/28 09:01:02;;;;;;;8.17;3.20;;;23.60;99.90;;;;;;4897471;29;20446;-48
2022/08/28 09:03:48;;;;;;;13.93;3.40;;;22.90;99.90;;;;;;4894235;29;20547;-48
2022/08/28 09:06:43;;;;;;;7.57;3.23;;;22.20;99.90;;;;;;4898105;29;20424;-47
2022/08/28 09:09:36;;;;;;;10.67;3.23;;;21.90;99.90;;;;;;4895663;29;20483;-48
2022/08/28 09:12:23;;;;;;;13.20;3.37;;;22.00;99.90;;;;;;4897992;29;20467;-47
2022/08/28 09:14:57;;;;;;;13.10;3.97;;;21.90;99.90;;;;;;4895736;29;20443;-47
2022/08/28 09:17:30;;;;;;;11.00;2.63;;;21.60;99.90;;;;;;4896312;29;20432;-47
2022/08/28 09:19:56;;;;;;;10.37;3.27;;;21.50;99.90;;;;;;4885084;29;20436;-48
2022/08/28 09:22:22;;;;;;;7.77;2.80;;;21.90;99.90;;;;;;4896879;29;20568;-47
2022/08/28 09:24:48;;;;;;;11.00;3.40;;;22.20;99.90;;;;;;4897538;29;20188;-48
2022/08/28 09:27:24;;;;;;;9.87;3.27;;;22.40;99.90;;;;;;4896309;29;20203;-47
2022/08/28 09:29:59;;;;;;;11.03;3.30;;;22.00;99.90;;;;;;4892728;29;20247;-47
2022/08/28 09:32:33;;;;;;;9.43;3.23;;;21.80;99.90;;;;;;4896387;29;20461;-48
2022/08/28 09:35:15;;;;;;;8.10;2.93;;;21.90;99.90;;;;;;4897330;29;20435;-47
2022/08/28 09:37:42;;;;;;;8.30;2.57;;;21.80;99.90;;;;;;4885096;29;20451;-47
2022/08/28 09:43:26;;;;;;;12.80;3.30;;;21.50;99.90;;;;;;4870144;29;20435;-46
2022/08/28 09:46:00;;;;;;;6.13;2.80;;;21.20;99.90;;;;;;4895301;29;20938;-47
2022/08/28 09:48:40;;;;;;;9.63;3.33;;;21.30;99.90;;;;;;4895680;29;20502;-47
2022/08/28 09:51:26;;;;;;;12.63;3.33;;;21.20;99.90;;;;;;4890404;29;20455;-47
2022/08/28 09:53:53;;;;;;;7.90;2.60;;;21.50;99.90;;;;;;4896120;29;20471;-48
2022/08/28 09:56:24;;;;;;;7.37;2.63;;;21.60;99.90;;;;;;4892332;29;20448;-47
2022/08/28 09:58:53;;;;;;;8.40;3.10;;;21.30;99.90;;;;;;4894294;29;20444;-47
2022/08/28 10:01:41;;;;;;;10.43;3.17;;;21.00;99.90;;;;;;4895381;29;20479;-48
2022/08/28 10:04:43;;;;;;;8.50;3.57;;;20.80;99.90;;;;;;4896232;29;20444;-48
2022/08/28 10:07:08;;;;;;;8.07;3.13;;;20.60;99.90;;;;;;4896839;29;20438;-48
2022/08/28 10:09:34;;;;;;;9.63;2.80;;;20.70;99.90;;;;;;4892914;29;20435;-47
2022/08/28 10:12:31;;;;;;;10.27;2.40;;;20.80;99.90;;;;;;4896744;29;20298;-47
2022/08/28 10:15:08;;;;;;;10.77;3.20;;;20.80;99.90;;;;;;4896215;29;20203;-47
2022/08/28 10:18:00;;;;;;;11.63;3.00;;;20.80;99.90;;;;;;4895025;29;20531;-47
2022/08/28 10:20:58;;;;;;;7.60;2.80;;;21.00;99.90;;;;;;4890869;29;20445;-47
2022/08/28 10:23:35;;;;;;;14.03;3.00;;;21.10;99.90;;;;;;4894464;29;20451;-46
2022/08/28 10:26:24;;;;;;;9.33;2.87;;;21.30;99.90;;;;;;4893810;29;20451;-46
2022/08/28 10:29:19;;;;;;;10.10;3.20;;;21.30;99.90;;;;;;4895513;29;20989;-47
2022/08/28 10:32:05;;;;;;;13.00;3.20;;;21.40;99.90;;;;;;4876379;29;20452;-47
2022/08/28 10:34:41;;;;;;;11.77;3.33;;;21.50;99.90;;;;;;4909642;29;20847;-47
2022/08/28 10:37:40;;;;;;;8.00;3.10;;;21.20;99.90;;;;;;4891575;29;20476;-47
2022/08/28 10:40:27;;;;;;;9.63;3.50;;;20.90;99.90;;;;;;4882046;29;20523;-47
2022/08/28 10:43:25;;;;;;;9.40;3.17;;;20.50;99.90;;;;;;4896033;29;21136;-47
2022/08/28 10:45:50;;;;;;;8.93;3.30;;;20.20;99.90;;;;;;4891811;29;20515;-47
2022/08/28 10:48:25;;;;;;;10.37;3.43;;;20.20;99.90;;;;;;4894165;29;20448;-47
2022/08/28 10:51:01;;;;;;;12.77;4.00;;;20.20;99.90;;;;;;4895423;29;20197;-47
2022/08/28 10:53:34;;;;;;;12.90;3.60;;;20.10;99.90;;;;;;4894756;29;20474;-47
2022/08/28 10:56:12;;;;;;;12.50;3.57;;;20.00;99.90;;;;;;4890909;29;20448;-47
2022/08/28 10:58:39;;;;;;;9.33;3.37;;;20.10;99.90;;;;;;4890694;29;20938;-47
2022/08/28 11:01:10;;;;;;;11.33;4.07;;;20.10;99.90;;;;;;4895836;29;20411;-47
2022/08/28 11:03:43;;;;;;;8.30;3.83;;;20.30;99.90;;;;;;4889645;29;20880;-47
2022/08/28 11:06:22;;;;;;;9.60;3.30;;;20.30;99.90;;;;;;4893206;29;20863;-47
2022/08/28 11:08:55;;;;;;;8.17;3.20;;;20.30;99.90;;;;;;4883038;29;20455;-47
2022/08/28 11:11:44;;;;;;;14.10;4.67;;;20.40;99.90;;;;;;4893355;29;20435;-48
2022/08/28 11:14:25;;;;;;;8.37;3.40;;;20.60;99.90;;;;;;4894478;29;20547;-47
2022/08/28 11:16:53;;;;;;;11.07;3.90;;;20.80;99.90;;;;;;4893675;29;20511;-48
2022/08/28 11:19:37;;;;;;;24.23;4.00;;;21.50;99.90;;;;;;4894095;29;20587;-48
2022/08/28 11:22:16;;;;;;;8.50;3.73;;;22.90;99.90;;;;;;4893184;29;20915;-48
2022/08/28 11:25:08;;;;;;;12.10;3.60;;;23.50;99.90;;;;;;4894019;29;20436;-48
2022/08/28 11:27:36;;;;;;;13.33;4.17;;;23.00;99.90;;;;;;4867058;29;20456;-48
2022/08/28 11:30:07;;;;;;;7.80;3.60;;;22.70;99.90;;;;;;4894142;29;20494;-48
2022/08/28 11:32:33;;;;;;;8.50;3.77;;;22.50;99.90;;;;;;4894036;29;20929;-48
2022/08/28 11:35:36;;;;;;;8.07;3.60;;;22.30;99.90;;;;;;4894157;29;20554;-48
2022/08/28 11:38:02;;;;;;;7.63;3.37;;;22.70;99.90;;;;;;4890905;29;20214;-48
2022/08/28 11:40:31;;;;;;;12.73;3.60;;;23.40;99.90;;;;;;4891210;29;20907;-48
2022/08/28 11:43:14;;;;;;;9.27;3.90;;;23.70;99.90;;;;;;4908144;29;20202;-48
2022/08/28 11:45:45;;;;;;;8.03;3.60;;;24.00;99.90;;;;;;4893610;29;20946;-49
2022/08/28 11:48:36;;;;;;;7.13;3.80;;;23.90;99.90;;;;;;4890267;29;20992;-48
2022/08/28 11:51:22;;;;;;;12.20;3.90;;;23.20;99.90;;;;;;4894374;29;20443;-48
2022/08/28 11:54:05;;;;;;;6.80;3.77;;;22.50;99.90;;;;;;4893235;29;20484;-48
2022/08/28 11:56:48;;;;;;;9.33;3.63;;;22.20;99.90;;;;;;4898685;29;20427;-48
2022/08/28 11:59:38;;;;;;;10.97;3.33;;;22.00;99.90;;;;;;4895272;29;20455;-48
2022/08/28 12:02:46;;;;;;;12.70;4.07;;;22.30;99.90;;;;;;4889263;29;20499;-48
2022/08/28 12:05:15;;;;;;;9.13;3.80;;;22.80;99.90;;;;;;4888011;29;21407;-48
2022/08/28 12:07:49;;;;;;;11.63;4.47;;;22.60;99.90;;;;;;4894094;29;20502;-49
2022/08/28 12:10:24;;;;;;;12.60;4.57;;;22.40;99.90;;;;;;4896837;29;20456;-48
2022/08/28 12:13:02;;;;;;;8.80;3.90;;;22.30;99.90;;;;;;4894023;29;20894;-48
2022/08/28 12:15:28;;;;;;;10.13;3.70;;;23.30;99.90;;;;;;4897595;29;20448;-48
2022/08/28 12:18:02;;;;;;;7.77;4.00;;;24.00;99.90;;;;;;4898226;29;20486;-48
2022/08/28 12:20:34;;;;;;;13.73;4.20;;;24.00;99.90;;;;;;4898151;29;20483;-48
2022/08/28 12:23:28;;;;;;;11.83;3.50;;;23.80;99.90;;;;;;4897765;29;20420;-47
2022/08/28 12:26:01;;;;;;;14.93;3.73;;;23.20;99.90;;;;;;4895158;29;20456;-48
2022/08/28 12:28:47;;;;;;;10.33;3.50;;;23.00;99.90;;;;;;4897352;29;20867;-47
2022/08/28 12:34:35;;;;;;;7.93;3.80;;;24.10;99.90;;;;;;4897091;29;20507;-48
2022/08/28 12:37:04;;;;;;;6.77;3.47;;;25.70;99.90;;;;;;4895145;29;20500;-48
2022/08/28 12:39:31;;;;;;;8.80;4.30;;;26.80;99.90;;;;;;4896140;29;20554;-48
2022/08/28 12:41:58;;;;;;;12.77;4.63;;;26.10;99.90;;;;;;4891378;29;20549;-48
2022/08/28 12:44:30;;;;;;;8.37;4.07;;;24.90;99.90;;;;;;4892165;29;21013;-48
2022/08/28 12:46:57;;;;;;;13.60;4.10;;;23.80;99.90;;;;;;4888317;29;20946;-48
2022/08/28 12:49:26;;;;;;;9.00;3.80;;;23.00;99.90;;;;;;4887498;29;20455;-48
